Time;durP1;ratioP1;P1;durP2;ratioP2;P2;SDS_P1;SDS_P2;PMS_P1;PMS_P2;Temp;Humidity;BMP_temperature;BMP_pressure;BME280_temperature;BME280_humidity;BME280_pressure;Samples;Min_cycle;Max_cycle;Signal;HPM_P1;HPM_P2
2024/01/11 00:02:18;;;;;;;81.18;26.08;;;;;;;-5.06;nan;101996.88;4981214;28;20015;-73
2024/01/11 00:04:43;;;;;;;85.93;25.98;;;;;;;-5.14;nan;101988.78;4984384;28;20033;-72
2024/01/11 00:07:09;;;;;;;77.65;24.23;;;;;;;-5.24;nan;101977.34;4970868;28;20038;-71
2024/01/11 00:09:44;;;;;;;87.07;26.40;;;;;;;-5.12;nan;101981.81;4987254;28;20039;-71
2024/01/11 00:12:09;;;;;;;89.30;27.40;;;;;;;-5.14;nan;101968.22;4973665;28;20022;-73
2024/01/11 00:14:35;;;;;;;87.72;26.77;;;;;;;-5.07;nan;101979.81;4988791;28;20023;-73
2024/01/11 00:17:01;;;;;;;91.35;25.50;;;;;;;-5.17;nan;101978.66;4987329;28;20033;-73
2024/01/11 00:19:26;;;;;;;76.70;23.63;;;;;;;-5.45;nan;101917.72;4990822;28;20480;-73
2024/01/11 00:21:52;;;;;;;86.70;25.92;;;;;;;-5.11;nan;101967.22;4988709;28;20042;-73
2024/01/11 00:24:17;;;;;;;87.97;25.48;;;;;;;-5.15;nan;101958.84;4973665;28;20072;-70
2024/01/11 00:26:43;;;;;;;92.47;27.23;;;;;;;-5.21;nan;101941.22;4969132;28;20055;-73
2024/01/11 00:29:08;;;;;;;84.35;25.38;;;;;;;-5.09;nan;101955.13;4971383;28;20607;-72
2024/01/11 00:31:34;;;;;;;81.35;23.95;;;;;;;-5.11;nan;101955.22;4968690;28;20473;-71
2024/01/11 00:33:59;;;;;;;82.15;25.40;;;;;;;-5.06;nan;101963.47;4970992;28;20043;-73
2024/01/11 00:36:25;;;;;;;89.85;24.55;;;;;;;-5.16;nan;101965.72;4970819;28;20033;-73
2024/01/11 00:38:50;;;;;;;94.40;24.98;;;;;;;-5.18;nan;101959.84;4969894;28;20023;-72
2024/01/11 00:41:16;;;;;;;91.03;22.27;;;;;;;-5.24;nan;101951.69;4970710;28;20049;-72
2024/01/11 00:43:41;;;;;;;87.88;23.73;;;;;;;-5.24;nan;101951.69;4966328;28;20031;-73
2024/01/11 00:46:07;;;;;;;78.70;23.70;;;;;;;-5.16;nan;101958.03;4968807;28;20022;-71
2024/01/11 00:48:33;;;;;;;86.07;23.55;;;;;;;-5.24;nan;101949.94;4967930;28;20019;-73
2024/01/11 00:50:58;;;;;;;76.00;24.13;;;;;;;-5.22;nan;101950.69;4969462;28;20408;-72
2024/01/11 00:53:23;;;;;;;76.03;22.98;;;;;;;-5.23;nan;101941.31;4964229;28;20126;-72
2024/01/11 00:55:49;;;;;;;75.93;23.80;;;;;;;-5.27;nan;101926.16;4966382;28;20384;-72
2024/01/11 00:58:14;;;;;;;77.60;22.67;;;;;;;-5.16;nan;101944.38;4969574;28;20050;-73
2024/01/11 01:00:40;;;;;;;79.50;22.58;;;;;;;-5.18;nan;101941.88;4964496;28;20873;-71
2024/01/11 01:03:05;;;;;;;74.78;22.60;;;;;;;-5.42;nan;101900.41;4969675;28;20026;-72
2024/01/11 01:05:30;;;;;;;75.32;23.17;;;;;;;-5.22;nan;101924.16;4970411;28;20061;-72
2024/01/11 01:07:56;;;;;;;77.25;22.77;;;;;;;-5.45;nan;101897.19;4972277;28;20536;-73
2024/01/11 01:10:21;;;;;;;84.43;24.63;;;;;;;-5.09;nan;101940.53;4968003;28;20416;-73
2024/01/11 01:12:47;;;;;;;85.85;27.50;;;;;;;-5.22;nan;101926.72;4967908;28;20018;-72
2024/01/11 01:15:14;;;;;;;76.13;24.23;;;;;;;-5.27;nan;101915.88;4968133;28;20019;-72
2024/01/11 01:17:39;;;;;;;77.18;24.10;;;;;;;-5.14;nan;101939.97;4966621;28;20037;-72
2024/01/11 01:20:05;;;;;;;73.57;23.77;;;;;;;-5.19;nan;101927.38;4963509;28;20039;-72
2024/01/11 01:22:31;;;;;;;99.78;25.55;;;;;;;-5.16;nan;101931.53;4965458;28;20073;-73
2024/01/11 01:24:56;;;;;;;75.00;21.88;;;;;;;-5.29;nan;101935.66;4965451;28;20062;-73
2024/01/11 01:27:22;;;;;;;73.32;22.90;;;;;;;-5.32;nan;101928.13;4965287;28;20042;-71
2024/01/11 01:29:47;;;;;;;73.20;22.67;;;;;;;-5.41;nan;101919.19;4962428;28;20386;-72
2024/01/11 01:32:12;;;;;;;70.32;22.35;;;;;;;-5.37;nan;101923.25;4964673;28;20559;-73
2024/01/11 01:34:38;;;;;;;83.20;23.52;;;;;;;-5.36;nan;101925.75;4963193;28;20121;-73
2024/01/11 01:37:03;;;;;;;82.22;23.63;;;;;;;-5.40;nan;101919.13;4965856;28;20034;-73
2024/01/11 01:39:29;;;;;;;90.28;23.50;;;;;;;-5.44;nan;101920.19;4963809;28;20042;-73
2024/01/11 01:41:54;;;;;;;78.97;22.90;;;;;;;-5.38;nan;101925.00;4964396;28;20034;-73
2024/01/11 01:44:19;;;;;;;77.15;23.02;;;;;;;-5.53;nan;101894.19;4964148;28;20034;-72
2024/01/11 01:46:45;;;;;;;75.03;23.40;;;;;;;-5.51;nan;101898.34;4963976;28;20134;-72
2024/01/11 01:49:11;;;;;;;81.65;23.50;;;;;;;-5.50;nan;101900.00;4963606;28;20594;-71
2024/01/11 01:51:37;;;;;;;81.60;25.30;;;;;;;-5.43;nan;101914.16;4964091;28;20433;-72
2024/01/11 01:54:03;;;;;;;87.13;24.17;;;;;;;-5.50;nan;101899.19;4964285;28;20022;-72
2024/01/11 01:56:29;;;;;;;81.18;24.50;;;;;;;-5.33;nan;101922.19;4963807;28;20031;-73
2024/01/11 01:58:56;;;;;;;87.60;24.38;;;;;;;-5.37;nan;101905.28;4965243;28;20030;-71
2024/01/11 02:01:23;;;;;;;84.13;23.65;;;;;;;-5.27;nan;101913.31;4965783;28;20034;-73
2024/01/11 02:03:54;;;;;;;77.45;24.15;;;;;;;-5.32;nan;101915.31;4965734;28;21292;-72
2024/01/11 02:06:23;;;;;;;81.15;24.80;;;;;;;-5.43;nan;101910.78;4963081;28;20027;-73
2024/01/11 02:08:51;;;;;;;86.28;23.88;;;;;;;-5.47;nan;101914.41;4965611;28;20037;-72
2024/01/11 02:11:18;;;;;;;81.25;24.98;;;;;;;-5.50;nan;101907.69;4962977;28;20121;-73
2024/01/11 02:13:45;;;;;;;76.60;24.65;;;;;;;-5.45;nan;101905.72;4964413;28;20105;-72
2024/01/11 02:16:13;;;;;;;77.35;23.35;;;;;;;-5.51;nan;101889.81;4964751;28;20045;-72
2024/01/11 02:18:38;;;;;;;80.57;24.52;;;;;;;-5.42;nan;101899.59;4965372;28;20026;-72
2024/01/11 02:21:08;;;;;;;83.70;23.95;;;;;;;-5.42;nan;101889.31;4964790;28;20034;-72
2024/01/11 02:23:39;;;;;;;78.45;23.90;;;;;;;-5.42;nan;101863.66;4964753;28;20122;-71
2024/01/11 02:26:04;;;;;;;87.38;23.92;;;;;;;-5.37;nan;101870.16;4963303;28;20023;-72
2024/01/11 02:28:30;;;;;;;88.15;25.58;;;;;;;-5.32;nan;101874.22;4985173;28;20061;-71
2024/01/11 02:30:55;;;;;;;86.75;24.88;;;;;;;-5.28;nan;101873.97;4984730;28;20046;-73
2024/01/11 02:33:21;;;;;;;74.95;23.80;;;;;;;-5.40;nan;101849.00;4984294;28;20068;-73
2024/01/11 02:35:46;;;;;;;83.65;23.45;;;;;;;-5.24;nan;101865.19;4983786;28;20099;-72
2024/01/11 02:38:12;;;;;;;80.30;23.48;;;;;;;-5.20;nan;101861.53;4981906;28;20048;-73
2024/01/11 02:40:40;;;;;;;76.97;23.05;;;;;;;-5.20;nan;101855.56;4985134;28;20034;-72
2024/01/11 02:43:10;;;;;;;86.10;23.45;;;;;;;-5.35;nan;101841.84;4968570;28;20367;-73
2024/01/11 02:45:35;;;;;;;80.30;23.73;;;;;;;-5.31;nan;101835.66;4980300;28;20476;-72
2024/01/11 02:48:01;;;;;;;83.60;23.85;;;;;;;-5.29;nan;101836.38;4970796;28;20029;-72
2024/01/11 02:50:26;;;;;;;80.25;24.88;;;;;;;-5.23;nan;101835.22;4966254;28;20420;-71
2024/01/11 02:52:51;;;;;;;78.18;23.63;;;;;;;-5.19;nan;101842.66;4967431;28;20022;-73
2024/01/11 02:55:17;;;;;;;118.53;26.85;;;;;;;-5.25;nan;101840.41;4982063;28;20076;-71
2024/01/11 02:57:42;;;;;;;83.90;23.23;;;;;;;-5.22;nan;101840.25;4978053;28;20054;-73
2024/01/11 03:00:08;;;;;;;82.38;24.35;;;;;;;-5.19;nan;101842.66;4984934;28;20370;-73
2024/01/11 03:02:33;;;;;;;91.82;25.17;;;;;;;-5.17;nan;101835.69;4985052;28;20030;-73
2024/01/11 03:04:59;;;;;;;86.93;24.30;;;;;;;-5.40;nan;101802.78;4982859;28;20033;-72
2024/01/11 03:07:24;;;;;;;98.80;25.83;;;;;;;-5.35;nan;101813.63;4979199;28;20029;-72
2024/01/11 03:09:50;;;;;;;87.07;24.98;;;;;;;-5.29;nan;101822.69;4965304;28;20030;-73
2024/01/11 03:12:15;;;;;;;82.47;23.17;;;;;;;-5.21;nan;101834.19;4984166;28;20018;-72
2024/01/11 03:14:40;;;;;;;88.22;24.75;;;;;;;-5.21;nan;101830.81;4985103;28;20026;-72
2024/01/11 03:17:06;;;;;;;82.90;23.73;;;;;;;-5.19;nan;101834.13;4981327;28;20058;-72
2024/01/11 03:19:31;;;;;;;84.50;23.30;;;;;;;-5.25;nan;101829.31;4983284;28;20038;-73
2024/01/11 03:21:57;;;;;;;82.82;22.52;;;;;;;-5.20;nan;101825.56;4968104;28;20383;-71
2024/01/11 03:24:23;;;;;;;88.03;23.10;;;;;;;-5.19;nan;101824.69;4983979;28;20038;-71
2024/01/11 03:26:48;;;;;;;95.47;24.83;;;;;;;-5.21;nan;101831.63;4981136;28;20093;-73
2024/01/11 03:29:15;;;;;;;85.07;23.75;;;;;;;-5.14;nan;101838.06;4982612;28;20156;-72
2024/01/11 03:31:42;;;;;;;78.07;22.08;;;;;;;-5.20;nan;101822.19;4985674;28;20480;-72
2024/01/11 03:34:08;;;;;;;87.68;21.73;;;;;;;-5.13;nan;101838.91;4981234;28;20026;-73
2024/01/11 03:36:33;;;;;;;79.18;21.98;;;;;;;-5.14;nan;101834.69;4983110;28;20031;-73
2024/01/11 03:38:59;;;;;;;79.13;23.13;;;;;;;-5.26;nan;101819.97;4985004;28;20038;-72
2024/01/11 03:41:24;;;;;;;84.45;21.42;;;;;;;-5.22;nan;101821.44;4967361;28;20058;-73
2024/01/11 03:43:50;;;;;;;81.05;23.27;;;;;;;-5.18;nan;101828.06;4983140;28;20022;-72
2024/01/11 03:46:16;;;;;;;89.18;22.83;;;;;;;-5.29;nan;101807.28;4982965;28;20030;-72
2024/01/11 03:48:41;;;;;;;167.45;26.08;;;;;;;-5.31;nan;101802.28;4984000;28;20058;-73
2024/01/11 03:51:07;;;;;;;81.72;22.38;;;;;;;-5.18;nan;101813.47;4983176;28;20096;-72
2024/01/11 03:53:36;;;;;;;80.38;23.98;;;;;;;-5.26;nan;101802.81;4984743;28;20050;-71
2024/01/11 03:56:02;;;;;;;81.28;22.00;;;;;;;-5.21;nan;101811.09;4983177;28;20030;-71
2024/01/11 03:58:27;;;;;;;88.85;22.90;;;;;;;-5.40;nan;101792.50;4984285;28;20030;-71
2024/01/11 04:00:53;;;;;;;80.50;22.35;;;;;;;-5.25;nan;101821.63;4967349;28;20452;-70
2024/01/11 04:03:19;;;;;;;82.55;22.65;;;;;;;-5.32;nan;101820.31;4983380;28;20022;-72
2024/01/11 04:05:44;;;;;;;87.72;22.65;;;;;;;-5.23;nan;101830.88;4981977;28;20042;-73
2024/01/11 04:08:10;;;;;;;82.57;22.13;;;;;;;-5.21;nan;101828.25;4983448;28;20022;-72
2024/01/11 04:10:35;;;;;;;80.03;22.05;;;;;;;-5.33;nan;101804.09;4984137;28;20034;-72
2024/01/11 04:13:01;;;;;;;82.63;23.15;;;;;;;-5.33;nan;101810.97;4982693;28;20034;-71
2024/01/11 04:15:26;;;;;;;83.45;21.42;;;;;;;-5.29;nan;101812.44;4970741;28;20033;-71
2024/01/11 04:17:51;;;;;;;82.05;23.35;;;;;;;-5.40;nan;101802.78;4981173;28;20026;-73
2024/01/11 04:20:17;;;;;;;76.47;21.38;;;;;;;-5.43;nan;101806.34;4966094;28;20536;-73
2024/01/11 04:22:43;;;;;;;80.72;21.85;;;;;;;-5.45;nan;101803.03;4981701;28;20026;-73
2024/01/11 04:25:08;;;;;;;76.22;21.48;;;;;;;-5.42;nan;101818.25;4982222;28;20031;-72
2024/01/11 04:27:34;;;;;;;66.85;19.92;;;;;;;-5.49;nan;101811.81;4963969;28;20096;-72
2024/01/11 04:29:59;;;;;;;67.68;21.48;;;;;;;-5.45;nan;101815.88;4981762;28;20404;-73
2024/01/11 04:32:24;;;;;;;69.35;21.83;;;;;;;-5.49;nan;101808.44;4981029;28;20464;-71
2024/01/11 04:34:50;;;;;;;80.32;22.00;;;;;;;-5.55;nan;101796.78;4984836;28;20030;-71
2024/01/11 04:37:15;;;;;;;70.82;21.63;;;;;;;-5.48;nan;101799.81;4982543;28;20026;-72
2024/01/11 04:39:41;;;;;;;79.13;22.58;;;;;;;-5.39;nan;101820.69;4983917;28;20033;-74
2024/01/11 04:42:06;;;;;;;75.13;22.33;;;;;;;-5.50;nan;101794.78;4983277;28;20037;-73
2024/01/11 04:44:31;;;;;;;79.53;21.30;;;;;;;-5.50;nan;101799.91;4968196;28;20019;-73
2024/01/11 04:46:57;;;;;;;86.43;22.10;;;;;;;-5.57;nan;101806.28;4982381;28;20061;-73
2024/01/11 04:49:23;;;;;;;76.70;21.30;;;;;;;-5.60;nan;101788.50;4980204;28;20023;-74
2024/01/11 04:51:48;;;;;;;85.95;23.02;;;;;;;-5.82;nan;101746.09;4967407;28;20440;-73
2024/01/11 04:54:14;;;;;;;79.75;22.77;;;;;;;-5.66;nan;101776.84;4985190;28;20546;-69
2024/01/11 04:56:39;;;;;;;84.40;22.77;;;;;;;-5.50;nan;101799.09;4986472;28;20029;-72
2024/01/11 04:59:04;;;;;;;95.68;22.70;;;;;;;-5.50;nan;101797.34;4982965;28;20018;-73
2024/01/11 05:01:30;;;;;;;91.47;22.60;;;;;;;-5.50;nan;101797.34;4970314;28;20157;-73
2024/01/11 05:03:55;;;;;;;91.75;22.95;;;;;;;-5.57;nan;101785.75;4982841;28;20377;-73
2024/01/11 05:06:22;;;;;;;81.43;23.05;;;;;;;-5.47;nan;101810.00;4965759;28;20027;-73
2024/01/11 05:08:53;;;;;;;93.30;24.85;;;;;;;-5.77;nan;101780.00;4968882;28;20031;-73
2024/01/11 05:11:26;;;;;;;88.05;23.30;;;;;;;-5.45;nan;101810.75;4968830;28;20077;-71
2024/01/11 05:13:52;;;;;;;83.15;22.60;;;;;;;-5.61;nan;101782.53;4985400;28;20027;-73
2024/01/11 05:16:22;;;;;;;92.15;22.95;;;;;;;-5.52;nan;101788.91;4984390;28;20046;-74
2024/01/11 05:18:48;;;;;;;76.65;21.67;;;;;;;-5.51;nan;101803.38;4986543;28;20060;-75
2024/01/11 05:21:14;;;;;;;85.07;22.13;;;;;;;-5.61;nan;101781.72;4981745;28;20062;-74
2024/01/11 05:23:43;;;;;;;95.75;24.67;;;;;;;-5.51;nan;101800.81;4986992;28;20412;-76
2024/01/11 05:26:09;;;;;;;94.80;24.00;;;;;;;-5.65;nan;101782.78;4965679;28;20027;-75
2024/01/11 05:28:34;;;;;;;90.55;24.73;;;;;;;-5.68;nan;101788.09;4985152;28;20061;-75
2024/01/11 05:31:00;;;;;;;92.78;24.08;;;;;;;-5.59;nan;101803.81;4987103;28;20026;-75
2024/01/11 05:33:26;;;;;;;92.30;24.73;;;;;;;-5.75;nan;101767.06;4986609;28;20022;-75
2024/01/11 05:35:53;;;;;;;100.07;24.23;;;;;;;-5.68;nan;101781.22;4985796;28;20022;-75
2024/01/11 05:38:21;;;;;;;102.47;25.38;;;;;;;-5.70;nan;101770.22;4983716;28;20065;-75
2024/01/11 05:40:47;;;;;;;102.43;26.50;;;;;;;-5.62;nan;101788.59;4983204;28;20029;-71
2024/01/11 05:43:12;;;;;;;89.45;23.67;;;;;;;-5.63;nan;101778.41;4985003;28;20386;-77
2024/01/11 05:45:37;;;;;;;85.90;23.02;;;;;;;-5.62;nan;101790.34;4986036;28;20105;-75
2024/01/11 05:48:05;;;;;;;92.82;23.67;;;;;;;-5.57;nan;101790.91;4983386;28;20612;-76
2024/01/11 05:50:31;;;;;;;97.72;25.90;;;;;;;-5.62;nan;101782.63;4985466;28;20953;-76
2024/01/11 05:52:56;;;;;;;94.50;24.88;;;;;;;-5.48;nan;101795.53;4986024;28;20022;-74
2024/01/11 05:55:22;;;;;;;90.72;22.83;;;;;;;-5.46;nan;101795.41;4985046;28;20469;-75
2024/01/11 05:57:48;;;;;;;92.70;23.98;;;;;;;-5.56;nan;101798.50;4985660;28;20022;-74
2024/01/11 06:00:14;;;;;;;81.65;24.10;;;;;;;-5.53;nan;101797.53;4967587;28;20057;-77
2024/01/11 06:02:40;;;;;;;89.82;24.10;;;;;;;-5.56;nan;101806.19;4984664;28;20034;-75
2024/01/11 06:05:08;;;;;;;97.32;23.65;;;;;;;-5.54;nan;101813.00;4982560;28;20050;-76
2024/01/11 06:07:34;;;;;;;105.57;25.30;;;;;;;-5.67;nan;101792.34;4985539;28;20022;-74
2024/01/11 06:10:02;;;;;;;100.07;22.88;;;;;;;-5.63;nan;101804.88;4983286;28;20334;-75
2024/01/11 06:12:28;;;;;;;94.55;24.80;;;;;;;-5.62;nan;101808.28;4967401;28;20041;-75
2024/01/11 06:14:53;;;;;;;88.97;23.08;;;;;;;-5.68;nan;101803.50;4984103;28;20193;-75
2024/01/11 06:17:18;;;;;;;92.45;24.55;;;;;;;-5.56;nan;101810.50;4979521;28;20034;-73
2024/01/11 06:19:44;;;;;;;97.88;25.27;;;;;;;-5.58;nan;101802.06;4986270;28;20037;-71
2024/01/11 06:22:09;;;;;;;99.35;24.95;;;;;;;-5.57;nan;101798.59;4987039;28;20026;-73
2024/01/11 06:24:35;;;;;;;105.05;26.50;;;;;;;-5.60;nan;101791.91;4971005;28;20026;-73
2024/01/11 06:27:00;;;;;;;109.00;25.35;;;;;;;-5.58;nan;101802.06;4985073;28;20104;-72
2024/01/11 06:29:26;;;;;;;108.53;25.00;;;;;;;-5.59;nan;101801.25;4987682;28;20457;-72
2024/01/11 06:31:51;;;;;;;112.57;25.30;;;;;;;-5.54;nan;101813.00;4988749;28;20029;-74
2024/01/11 06:34:17;;;;;;;100.47;24.67;;;;;;;-5.68;nan;101791.47;4983778;28;20030;-72
2024/01/11 06:36:42;;;;;;;107.07;24.88;;;;;;;-5.72;nan;101791.72;4986535;28;20026;-73
2024/01/11 06:39:09;;;;;;;104.70;24.83;;;;;;;-5.77;nan;101797.13;4986582;28;20105;-73
2024/01/11 06:41:34;;;;;;;103.32;25.08;;;;;;;-5.98;nan;101765.84;4985003;28;20030;-72
2024/01/11 06:43:59;;;;;;;99.20;25.90;;;;;;;-5.85;nan;101784.72;4986805;28;20081;-73
2024/01/11 06:46:25;;;;;;;112.00;25.30;;;;;;;-5.69;nan;101815.50;4986312;28;20080;-73
2024/01/11 06:48:50;;;;;;;114.57;25.77;;;;;;;-5.72;nan;101804.56;4988196;28;20038;-72
2024/01/11 06:51:16;;;;;;;112.55;25.80;;;;;;;-5.75;nan;101805.56;4985449;28;20030;-72
2024/01/11 06:53:42;;;;;;;107.38;24.75;;;;;;;-5.84;nan;101808.63;4987522;28;20141;-73
2024/01/11 06:56:19;;;;;;;98.28;25.65;;;;;;;-5.87;nan;101799.34;4986350;28;20116;-72
2024/01/11 06:58:45;;;;;;;104.65;25.27;;;;;;;-5.82;nan;101811.94;4970245;28;20022;-71
2024/01/11 07:01:11;;;;;;;96.45;24.10;;;;;;;-5.81;nan;101814.44;4986401;28;20088;-72
2024/01/11 07:03:37;;;;;;;93.15;23.15;;;;;;;-5.87;nan;101789.09;4986829;28;20084;-71
2024/01/11 07:06:03;;;;;;;123.85;27.27;;;;;;;-5.87;nan;101801.94;4986370;28;20034;-73
2024/01/11 07:08:29;;;;;;;99.43;24.48;;;;;;;-5.93;nan;101788.63;4986084;28;20032;-72
2024/01/11 07:10:55;;;;;;;112.38;26.88;;;;;;;-5.83;nan;101802.59;4979095;28;20030;-73
2024/01/11 07:13:20;;;;;;;117.53;27.60;;;;;;;-5.77;nan;101805.66;4985842;28;20026;-73
2024/01/11 07:15:47;;;;;;;128.20;27.02;;;;;;;-5.84;nan;101799.22;4985285;28;20507;-73
2024/01/11 07:18:13;;;;;;;109.47;25.50;;;;;;;-5.78;nan;101813.44;4984162;28;20037;-73
2024/01/11 07:20:38;;;;;;;117.55;25.50;;;;;;;-5.86;nan;101797.66;4980867;28;20030;-75
2024/01/11 07:23:04;;;;;;;112.65;25.20;;;;;;;-5.91;nan;101781.66;4965953;28;20722;-71
2024/01/11 07:25:30;;;;;;;112.47;26.65;;;;;;;-6.01;nan;101769.38;4967098;28;20018;-70
2024/01/11 07:27:55;;;;;;;106.63;26.30;;;;;;;-5.89;nan;101780.69;4983360;28;20054;-74
2024/01/11 07:30:21;;;;;;;107.43;24.60;;;;;;;-6.02;nan;101770.28;4982131;28;20172;-73
2024/01/11 07:32:46;;;;;;;113.05;25.10;;;;;;;-5.71;nan;101806.22;4964485;28;20718;-76
2024/01/11 07:35:13;;;;;;;107.68;25.67;;;;;;;-6.05;nan;101769.63;4983046;28;20504;-73
2024/01/11 07:37:39;;;;;;;106.60;22.77;;;;;;;-5.95;nan;101781.03;4980790;28;20057;-73
2024/01/11 07:40:11;;;;;;;103.18;24.75;;;;;;;-5.92;nan;101785.97;4965005;28;20038;-73
2024/01/11 07:42:40;;;;;;;96.82;24.50;;;;;;;-5.80;nan;101805.81;4980327;28;20034;-73
2024/01/11 07:45:07;;;;;;;103.18;23.75;;;;;;;-5.77;nan;101807.38;4958271;28;20019;-73
2024/01/11 07:47:37;;;;;;;88.25;22.02;;;;;;;-5.95;nan;101780.22;4982196;28;20054;-73
2024/01/11 07:50:03;;;;;;;97.00;25.00;;;;;;;-5.83;nan;101792.34;4966232;28;20601;-74
2024/01/11 07:52:29;;;;;;;99.57;24.42;;;;;;;-5.79;nan;101784.41;4980701;28;20049;-70
2024/01/11 07:54:54;;;;;;;107.13;23.73;;;;;;;-5.69;nan;101796.72;4966363;28;20104;-70
2024/01/11 07:57:20;;;;;;;91.70;21.63;;;;;;;-5.79;nan;101792.09;4967412;28;20023;-72
2024/01/11 07:59:45;;;;;;;90.03;21.40;;;;;;;-5.89;nan;101783.25;4983450;28;20404;-72
2024/01/11 08:02:11;;;;;;;93.68;22.10;;;;;;;-5.82;nan;101797.41;4983739;28;21198;-72
2024/01/11 08:04:38;;;;;;;93.43;21.80;;;;;;;-5.85;nan;101801.84;4984262;28;20473;-72
2024/01/11 08:07:04;;;;;;;77.45;21.45;;;;;;;-5.82;nan;101804.25;4981317;28;20033;-71
2024/01/11 08:09:29;;;;;;;85.05;20.63;;;;;;;-5.78;nan;101819.38;4982825;28;20029;-71
2024/01/11 08:11:55;;;;;;;80.13;20.40;;;;;;;-5.78;nan;101824.50;4980675;28;20057;-71
2024/01/11 08:14:21;;;;;;;78.38;19.63;;;;;;;-5.73;nan;101823.44;4982224;28;20030;-71
2024/01/11 08:16:46;;;;;;;72.75;18.35;;;;;;;-5.78;nan;101803.16;4968323;28;20197;-72
2024/01/11 08:19:14;;;;;;;84.72;23.30;;;;;;;-5.89;nan;101785.81;4966580;28;20084;-73
2024/01/11 08:21:41;;;;;;;84.65;19.13;;;;;;;-5.82;nan;101799.13;4981264;28;20110;-72
2024/01/11 08:24:06;;;;;;;74.13;19.08;;;;;;;-5.93;nan;101789.44;4984351;28;20034;-73
2024/01/11 08:26:32;;;;;;;75.03;18.67;;;;;;;-5.91;nan;101789.34;4964115;28;20047;-72
2024/01/11 08:28:57;;;;;;;77.95;20.02;;;;;;;-5.94;nan;101776.72;4987652;28;20472;-73
2024/01/11 08:31:23;;;;;;;80.22;20.15;;;;;;;-5.95;nan;101769.97;4988187;28;20027;-73
2024/01/11 08:33:49;;;;;;;76.35;19.83;;;;;;;-5.91;nan;101782.50;4989944;28;20335;-71
2024/01/11 08:36:15;;;;;;;76.68;19.13;;;;;;;-5.89;nan;101790.94;4983332;28;20405;-72
2024/01/11 08:38:41;;;;;;;69.40;18.73;;;;;;;-5.96;nan;101794.78;4988331;28;20037;-71
2024/01/11 08:41:06;;;;;;;74.60;17.92;;;;;;;-6.06;nan;101778.22;4987383;28;20041;-70
2024/01/11 08:43:32;;;;;;;74.55;19.40;;;;;;;-6.06;nan;101786.72;4988865;28;20034;-70
2024/01/11 08:45:58;;;;;;;70.35;19.42;;;;;;;-6.01;nan;101796.75;4985137;28;20050;-71
2024/01/11 08:48:23;;;;;;;74.65;18.92;;;;;;;-6.05;nan;101769.63;4987765;28;20033;-72
2024/01/11 08:50:49;;;;;;;85.97;19.33;;;;;;;-5.96;nan;101764.00;4984145;28;20061;-72
2024/01/11 08:53:15;;;;;;;74.45;19.98;;;;;;;-5.99;nan;101761.59;4984718;28;20030;-72
2024/01/11 08:55:41;;;;;;;70.88;17.17;;;;;;;-5.96;nan;101764.00;4981521;28;20030;-73
2024/01/11 08:58:07;;;;;;;71.07;17.33;;;;;;;-6.00;nan;101757.38;4979894;28;20026;-73
2024/01/11 09:00:32;;;;;;;73.28;19.30;;;;;;;-6.01;nan;101755.72;4980350;28;20507;-71
2024/01/11 09:02:57;;;;;;;82.90;19.45;;;;;;;-5.97;nan;101759.78;4985961;28;20038;-71
2024/01/11 09:05:23;;;;;;;76.85;18.55;;;;;;;-6.03;nan;101752.44;4984146;28;20046;-71
2024/01/11 09:07:48;;;;;;;83.50;19.70;;;;;;;-5.89;nan;101760.16;4982141;28;20058;-70
2024/01/11 09:10:14;;;;;;;74.63;19.88;;;;;;;-5.95;nan;101747.69;4965014;28;20393;-71
2024/01/11 09:12:39;;;;;;;76.97;19.65;;;;;;;-6.01;nan;101736.06;4976534;28;20065;-70
2024/01/11 09:15:05;;;;;;;74.25;18.85;;;;;;;-5.87;nan;101753.19;4981863;28;20026;-70
2024/01/11 09:17:31;;;;;;;79.85;20.38;;;;;;;-5.87;nan;101752.38;4984020;28;20038;-70
2024/01/11 09:19:56;;;;;;;76.00;20.13;;;;;;;-5.89;nan;101755.03;4986760;28;20023;-71
2024/01/11 09:22:22;;;;;;;68.60;18.52;;;;;;;-5.97;nan;101741.81;4985972;28;20050;-71
2024/01/11 09:24:47;;;;;;;74.38;19.55;;;;;;;-6.03;nan;101719.09;4987938;28;20109;-71
2024/01/11 09:27:13;;;;;;;78.03;19.17;;;;;;;-5.95;nan;101742.56;4984733;28;20117;-70
2024/01/11 09:29:45;;;;;;;72.25;19.80;;;;;;;-6.15;nan;101717.19;4966439;28;20037;-70
2024/01/11 09:32:12;;;;;;;65.95;18.27;;;;;;;-6.17;nan;101714.72;4989853;28;20489;-70
2024/01/11 09:34:37;;;;;;;74.72;19.45;;;;;;;-6.06;nan;101734.63;4985372;28;20121;-69
2024/01/11 09:37:03;;;;;;;70.57;18.85;;;;;;;-6.06;nan;101727.75;4988883;28;20767;-70
2024/01/11 09:39:29;;;;;;;110.28;20.55;;;;;;;-6.03;nan;101725.06;4964830;28;20018;-69
2024/01/11 09:42:04;;;;;;;71.95;19.55;;;;;;;-6.18;nan;101694.28;4968101;28;20121;-69
2024/01/11 09:44:30;;;;;;;76.47;19.17;;;;;;;-5.97;nan;101716.19;4987009;28;20050;-69
2024/01/11 09:46:58;;;;;;;67.93;19.83;;;;;;;-6.05;nan;101697.84;4988047;28;20049;-69
2024/01/11 09:49:24;;;;;;;85.65;21.92;;;;;;;-6.06;nan;101686.72;4984255;28;20026;-69
2024/01/11 09:51:50;;;;;;;84.72;21.05;;;;;;;-6.01;nan;101686.47;4985017;28;20587;-69
2024/01/11 09:54:20;;;;;;;81.63;19.70;;;;;;;-6.01;nan;101692.47;4985508;28;20082;-68
2024/01/11 09:56:48;;;;;;;83.75;19.73;;;;;;;-5.93;nan;101702.25;4970105;28;20389;-71
2024/01/11 09:59:18;;;;;;;70.55;17.55;;;;;;;-5.88;nan;101710.50;4982056;28;20038;-71
2024/01/11 10:01:44;;;;;;;72.13;18.48;;;;;;;-6.00;nan;101693.28;4983483;28;20074;-71
2024/01/11 10:04:10;;;;;;;74.22;19.67;;;;;;;-6.05;nan;101692.72;4986152;28;20248;-71
2024/01/11 10:06:38;;;;;;;76.50;20.00;;;;;;;-6.16;nan;101677.09;4966714;28;20026;-71
2024/01/11 10:09:04;;;;;;;63.75;18.27;;;;;;;-6.01;nan;101697.59;4968328;28;20033;-70
2024/01/11 10:11:29;;;;;;;71.35;18.55;;;;;;;-6.02;nan;101690.78;4985937;28;20026;-69
2024/01/11 10:13:59;;;;;;;66.03;17.27;;;;;;;-6.15;nan;101658.22;4984253;28;20037;-70
2024/01/11 10:16:24;;;;;;;;;;;;;;;-5.97;nan;101689.72;4984427;28;20077;-69
2024/01/11 10:18:53;;;;;;;67.10;18.05;;;;;;;-6.43;nan;101611.88;4985076;28;19910;-69
2024/01/11 10:21:19;;;;;;;57.80;18.02;;;;;;;-6.31;nan;101630.06;4964871;28;20026;-70
2024/01/11 10:23:44;;;;;;;66.13;17.10;;;;;;;-6.18;nan;101656.66;4968780;28;20039;-69
2024/01/11 10:26:10;;;;;;;54.45;17.00;;;;;;;-6.09;nan;101652.75;4986401;28;20030;-70
2024/01/11 10:28:37;;;;;;;58.05;17.35;;;;;;;-6.06;nan;101655.16;4987152;28;20018;-70
2024/01/11 10:31:05;;;;;;;68.88;18.38;;;;;;;-5.96;nan;101664.00;4983704;28;20380;-70
2024/01/11 10:33:30;;;;;;;62.80;18.45;;;;;;;-6.04;nan;101655.88;4982575;28;20018;-70
2024/01/11 10:35:56;;;;;;;65.43;19.55;;;;;;;-6.03;nan;101644.75;4986135;28;20445;-70
2024/01/11 10:38:24;;;;;;;67.03;20.65;;;;;;;-5.97;nan;101641.81;4967967;28;20026;-70
2024/01/11 10:40:52;;;;;;;61.00;17.88;;;;;;;-5.96;nan;101633.22;4985525;28;20068;-69
2024/01/11 10:43:22;;;;;;;62.38;18.30;;;;;;;-5.94;nan;101645.94;4985120;28;20030;-70
2024/01/11 10:45:49;;;;;;;66.07;18.42;;;;;;;-6.06;nan;101624.38;4966645;28;20424;-71
2024/01/11 10:48:16;;;;;;;69.22;17.45;;;;;;;-5.90;nan;101642.25;4986213;28;20029;-70
2024/01/11 10:50:49;;;;;;;65.72;17.90;;;;;;;-6.22;nan;101588.53;4983821;28;20061;-70
2024/01/11 10:53:39;;;;;;;68.28;18.95;;;;;;;-5.93;nan;101630.44;4982111;28;20030;-70
2024/01/11 10:56:06;;;;;;;57.88;16.92;;;;;;;-5.99;nan;101623.94;4984764;28;20035;-74
2024/01/11 10:58:35;;;;;;;63.33;16.85;;;;;;;-5.99;nan;101623.94;4964467;28;20396;-72
2024/01/11 11:01:02;;;;;;;56.50;16.27;;;;;;;-5.93;nan;101619.38;4966076;28;20493;-72
2024/01/11 11:03:31;;;;;;;58.63;16.63;;;;;;;-5.95;nan;101611.78;4981947;28;20036;-72
2024/01/11 11:05:58;;;;;;;64.60;18.77;;;;;;;-5.86;nan;101616.34;4983170;28;20101;-72
2024/01/11 11:08:25;;;;;;;57.58;17.52;;;;;;;-5.88;nan;101605.34;4982056;28;20028;-72
2024/01/11 11:10:57;;;;;;;57.72;15.77;;;;;;;-5.90;nan;101599.47;4985187;28;20018;-71
2024/01/11 11:13:22;;;;;;;57.28;16.60;;;;;;;-6.07;nan;101574.03;4986894;28;20545;-71
2024/01/11 11:15:51;;;;;;;63.05;17.85;;;;;;;-5.92;nan;101611.56;4982527;28;20034;-72
2024/01/11 11:18:18;;;;;;;59.88;18.02;;;;;;;-5.93;nan;101599.66;4990310;28;20425;-71
2024/01/11 11:20:44;;;;;;;51.67;16.10;;;;;;;-5.97;nan;101593.09;4985676;28;20033;-72